createdAt,value
2018-06-08T00:02:22.240Z,68.53
2018-06-08T00:04:50.958Z,69.29
2018-06-08T00:07:19.741Z,68.79
2018-06-08T00:09:48.532Z,69.24
2018-06-08T00:12:17.328Z,69.37
2018-06-08T00:14:46.113Z,69.26
2018-06-08T00:17:14.866Z,69.14
2018-06-08T00:19:43.675Z,68.21
2018-06-08T00:22:12.438Z,68.89
2018-06-08T00:24:41.225Z,69.13
2018-06-08T00:27:09.955Z,68.44
2018-06-08T00:29:58.200Z,68.67
2018-06-08T00:32:27.439Z,68.90
2018-06-08T00:34:56.162Z,69.39
2018-06-08T00:37:24.889Z,69.05
2018-06-08T00:39:53.608Z,69.69
2018-06-08T00:42:22.343Z,69.78
2018-06-08T00:44:51.095Z,70.00
2018-06-08T00:47:19.838Z,69.29
2018-06-08T00:49:48.591Z,69.49
2018-06-08T00:52:17.348Z,70.28
2018-06-08T00:54:46.094Z,70.17
2018-06-08T00:57:14.859Z,70.29
2018-06-08T00:59:43.597Z,70.23
2018-06-08T01:02:12.352Z,70.92
2018-06-08T01:04:41.254Z,70.93
2018-06-08T01:07:10.019Z,70.68
2018-06-08T01:09:38.710Z,70.31
2018-06-08T01:12:07.587Z,70.13
2018-06-08T01:14:36.289Z,70.56
2018-06-08T01:17:05.056Z,70.53
2018-06-08T01:19:35.003Z,70.87
2018-06-08T01:22:03.914Z,71.29
2018-06-08T01:24:33.177Z,71.32
2018-06-08T01:27:01.899Z,71.49
2018-06-08T01:29:30.648Z,70.90
2018-06-08T01:31:59.346Z,71.03
2018-06-08T01:34:28.072Z,71.04
2018-06-08T01:36:56.901Z,70.53
2018-06-08T01:39:25.626Z,70.18
2018-06-08T01:41:54.349Z,70.92
2018-06-08T01:44:23.111Z,70.85
2018-06-08T01:46:51.841Z,71.33
2018-06-08T01:49:20.618Z,70.36
2018-06-08T01:51:49.352Z,70.90
2018-06-08T01:54:18.173Z,71.08
2018-06-08T01:56:47.235Z,70.58
2018-06-08T01:59:15.967Z,70.23
2018-06-08T02:01:44.729Z,70.83
2018-06-08T02:04:13.457Z,70.19
2018-06-08T02:06:42.220Z,70.14
2018-06-08T02:09:11.017Z,70.38
2018-06-08T02:11:39.772Z,70.13
2018-06-08T02:14:08.608Z,70.80
2018-06-08T02:16:37.349Z,71.31
2018-06-08T02:19:06.052Z,71.21
2018-06-08T02:21:34.817Z,71.29
2018-06-08T02:24:03.614Z,70.81
2018-06-08T02:26:32.423Z,72.00
2018-06-08T02:29:01.197Z,72.11
2018-06-08T02:31:30.399Z,72.22
2018-06-08T02:33:59.398Z,72.37
2018-06-08T02:36:28.292Z,72.35
2018-06-08T02:38:57.079Z,72.42
2018-06-08T02:41:25.810Z,72.98
2018-06-08T02:43:54.558Z,73.04
2018-06-08T02:46:23.326Z,72.67
2018-06-08T02:48:52.054Z,72.92
2018-06-08T02:51:20.776Z,73.08
2018-06-08T02:53:49.502Z,72.85
2018-06-08T02:56:18.271Z,73.59
2018-06-08T02:58:47.397Z,72.83
2018-06-08T03:01:16.155Z,73.53
2018-06-08T03:03:44.895Z,72.91
2018-06-08T03:06:13.630Z,72.98
2018-06-08T03:08:42.403Z,73.48
2018-06-08T03:11:11.183Z,73.19
2018-06-08T03:13:39.939Z,73.68
2018-06-08T03:16:08.673Z,73.30
2018-06-08T03:18:37.438Z,72.59
2018-06-08T03:21:06.407Z,73.36
2018-06-08T03:23:35.150Z,72.69
2018-06-08T03:26:03.946Z,72.33
2018-06-08T03:28:32.706Z,72.90
2018-06-08T03:31:01.449Z,72.77
2018-06-08T03:33:30.148Z,72.79
2018-06-08T03:35:59.939Z,72.03
2018-06-08T03:38:28.691Z,72.21
2018-06-08T03:40:57.398Z,71.60
2018-06-08T03:43:26.146Z,72.24
2018-06-08T03:45:54.917Z,71.58
2018-06-08T03:48:23.699Z,72.36
2018-06-08T03:50:52.447Z,71.76
2018-06-08T03:53:21.219Z,71.56
2018-06-08T03:55:50.337Z,71.31
2018-06-08T03:58:19.085Z,70.71
2018-06-08T04:00:47.805Z,69.88
2018-06-08T04:03:16.540Z,70.25
2018-06-08T04:05:45.288Z,69.24
2018-06-08T04:08:14.026Z,68.85
2018-06-08T04:10:43.876Z,69.18
2018-06-08T04:13:12.580Z,68.69
2018-06-08T04:15:41.563Z,67.64
2018-06-08T04:18:10.411Z,67.86
2018-06-08T04:20:39.179Z,67.27
2018-06-08T04:23:07.987Z,67.26
2018-06-08T04:25:36.800Z,67.03
2018-06-08T04:28:06.011Z,66.94
2018-06-08T04:30:34.798Z,67.05
2018-06-08T04:33:03.918Z,66.58
2018-06-08T04:35:32.818Z,66.63
2018-06-08T04:38:01.534Z,65.56
2018-06-08T04:40:30.346Z,65.52
2018-06-08T04:42:59.234Z,65.01
2018-06-08T04:45:27.990Z,64.25
2018-06-08T04:47:56.693Z,63.59
2018-06-08T04:50:25.442Z,62.32
2018-06-08T04:52:54.274Z,59.14
2018-06-08T04:55:23.022Z,57.13
2018-06-08T04:57:51.754Z,54.26
2018-06-08T05:00:20.563Z,52.15
2018-06-08T05:02:49.306Z,51.56
2018-06-08T05:05:18.060Z,49.76
2018-06-08T05:07:46.874Z,48.80
2018-06-08T05:10:15.960Z,47.23
2018-06-08T05:12:44.738Z,46.62
2018-06-08T05:15:13.470Z,47.62
2018-06-08T05:17:42.239Z,46.56
2018-06-08T05:20:10.977Z,46.93
2018-06-08T05:22:39.798Z,45.17
2018-06-08T05:25:08.495Z,45.75
2018-06-08T05:27:37.287Z,43.87
2018-06-08T05:30:19.253Z,44.53
2018-06-08T05:32:48.046Z,43.48
2018-06-08T05:35:16.851Z,41.74
2018-06-08T05:37:45.614Z,42.76
2018-06-08T05:40:14.449Z,42.69
2018-06-08T05:42:43.223Z,41.11
2018-06-08T05:45:12.016Z,41.97
2018-06-08T05:47:40.799Z,41.21
2018-06-08T05:50:09.586Z,42.07
2018-06-08T05:52:38.345Z,43.08
2018-06-08T05:55:07.096Z,43.89
2018-06-08T05:57:35.868Z,43.99
2018-06-08T06:00:08.014Z,44.14
2018-06-08T06:02:36.807Z,45.41
2018-06-08T06:05:07.414Z,45.23
2018-06-08T06:07:36.292Z,47.01
2018-06-08T06:10:06.075Z,47.55
2018-06-08T06:12:35.263Z,48.42
2018-06-08T06:15:04.184Z,48.40
2018-06-08T06:17:33.064Z,48.00
2018-06-08T06:20:01.833Z,48.99
2018-06-08T06:22:30.644Z,49.99
2018-06-08T06:24:59.412Z,50.59
2018-06-08T06:27:28.418Z,52.05
2018-06-08T06:29:57.178Z,52.53
2018-06-08T06:32:26.091Z,52.98
2018-06-08T06:34:55.124Z,52.81
2018-06-08T06:37:23.994Z,51.92
2018-06-08T06:39:53.818Z,51.71
2018-06-08T06:42:22.740Z,52.45
2018-06-08T06:44:51.733Z,52.23
2018-06-08T06:47:20.738Z,52.75
2018-06-08T06:49:49.607Z,53.08
2018-06-08T06:52:18.397Z,52.52
2018-06-08T06:55:03.340Z,52.03
2018-06-08T06:57:32.130Z,52.39
2018-06-08T07:00:00.941Z,53.08
2018-06-08T07:02:29.964Z,53.53
2018-06-08T07:04:58.914Z,52.34
2018-06-08T07:07:27.884Z,51.96
2018-06-08T07:09:56.761Z,52.30
2018-06-08T07:12:25.620Z,52.04
2018-06-08T07:14:54.449Z,52.80
2018-06-08T07:17:23.307Z,52.15
2018-06-08T07:19:52.176Z,51.61
2018-06-08T07:22:21.429Z,52.45
2018-06-08T07:24:50.380Z,52.84
2018-06-08T07:27:19.304Z,50.87
2018-06-08T07:29:48.140Z,51.74
2018-06-08T07:32:16.919Z,51.16
2018-06-08T07:34:45.971Z,50.33
2018-06-08T07:37:14.735Z,50.82
2018-06-08T07:39:43.595Z,49.97
2018-06-08T07:42:12.678Z,50.62
2018-06-08T07:44:41.430Z,50.81
2018-06-08T07:47:10.179Z,50.51
2018-06-08T07:49:38.962Z,49.47
2018-06-08T07:52:07.721Z,49.63
2018-06-08T07:54:36.593Z,48.94
2018-06-08T07:57:05.408Z,49.26
2018-06-08T07:59:34.188Z,48.62
2018-06-08T08:02:02.919Z,48.42
2018-06-08T08:04:31.694Z,48.87
2018-06-08T08:07:00.428Z,49.48
2018-06-08T08:09:29.167Z,49.31
2018-06-08T08:11:59.011Z,47.42
2018-06-08T08:14:28.110Z,46.07
2018-06-08T08:16:58.361Z,46.84
2018-06-08T08:19:27.179Z,48.00
2018-06-08T08:21:55.926Z,48.49
2018-06-08T08:24:24.722Z,48.52
2018-06-08T08:26:53.475Z,49.17
2018-06-08T08:29:22.232Z,47.15
2018-06-08T08:31:50.991Z,47.06
2018-06-08T08:34:49.415Z,46.74
2018-06-08T08:37:18.190Z,47.59
2018-06-08T08:39:46.949Z,47.93
2018-06-08T08:42:15.743Z,47.72
2018-06-08T08:44:44.523Z,47.08
2018-06-08T08:47:13.264Z,46.94
2018-06-08T08:49:41.976Z,48.43
2018-06-08T08:52:10.754Z,47.54
2018-06-08T08:54:39.483Z,47.79
2018-06-08T08:57:08.354Z,47.74
2018-06-08T08:59:37.223Z,47.83
2018-06-08T09:02:05.977Z,48.55
2018-06-08T09:04:34.759Z,46.85
2018-06-08T09:07:03.920Z,45.84
2018-06-08T09:09:32.688Z,47.26
2018-06-08T09:12:01.598Z,46.45
2018-06-08T09:14:33.572Z,46.28
2018-06-08T09:17:02.336Z,47.05
2018-06-08T09:19:31.048Z,46.04
2018-06-08T09:21:59.822Z,46.60
2018-06-08T09:24:28.756Z,46.34
2018-06-08T09:26:57.504Z,47.37
2018-06-08T09:29:26.210Z,46.28
2018-06-08T09:31:54.924Z,46.86
2018-06-08T09:34:23.654Z,45.20
2018-06-08T09:36:52.381Z,45.33
2018-06-08T09:39:21.204Z,45.12
2018-06-08T09:41:50.048Z,44.31
2018-06-08T09:44:18.848Z,44.34
2018-06-08T09:46:47.606Z,44.56
2018-06-08T09:49:16.408Z,44.89
2018-06-08T09:51:45.198Z,43.84
2018-06-08T09:54:14.007Z,45.06
2018-06-08T09:56:43.753Z,44.90
2018-06-08T09:59:12.498Z,44.50
2018-06-08T10:01:41.230Z,44.95
2018-06-08T10:04:10.053Z,45.05
2018-06-08T10:06:38.824Z,43.27
2018-06-08T10:09:08.454Z,44.64
2018-06-08T10:11:37.512Z,45.71
2018-06-08T10:14:06.334Z,45.88
2018-06-08T10:16:35.074Z,46.14
2018-06-08T10:19:04.253Z,46.33
2018-06-08T10:21:33.037Z,45.60
2018-06-08T10:24:01.830Z,45.21
2018-06-08T10:26:30.627Z,44.81
2018-06-08T10:28:59.353Z,46.09
2018-06-08T10:31:28.100Z,45.65
2018-06-08T10:33:56.901Z,45.16
2018-06-08T10:36:25.936Z,45.59
2018-06-08T10:38:54.696Z,45.32
2018-06-08T10:41:23.508Z,44.30
2018-06-08T10:43:52.270Z,44.38
2018-06-08T10:46:21.002Z,44.84
2018-06-08T10:48:49.921Z,44.60
2018-06-08T10:51:18.683Z,44.41
2018-06-08T10:53:47.497Z,45.46
2018-06-08T10:56:16.875Z,45.82
2018-06-08T10:58:45.622Z,45.13
2018-06-08T11:01:14.437Z,44.17
2018-06-08T11:03:43.263Z,43.20
2018-06-08T11:06:12.019Z,43.50
2018-06-08T11:08:40.838Z,44.26
2018-06-08T11:11:09.648Z,44.19
2018-06-08T11:13:38.431Z,43.97
2018-06-08T11:16:07.175Z,43.50
2018-06-08T11:18:35.958Z,44.23
2018-06-08T11:21:04.757Z,43.43
2018-06-08T11:23:33.539Z,42.83
2018-06-08T11:26:17.751Z,43.32
2018-06-08T11:28:46.723Z,42.77
2018-06-08T11:31:15.475Z,41.77
2018-06-08T11:33:44.185Z,42.09
2018-06-08T11:36:12.908Z,41.77
2018-06-08T11:38:41.751Z,42.13
2018-06-08T11:41:10.495Z,41.38
2018-06-08T11:43:39.774Z,41.90
2018-06-08T11:46:08.641Z,41.30
2018-06-08T11:48:37.430Z,42.03
2018-06-08T11:51:06.287Z,41.63
2018-06-08T11:53:35.068Z,40.70
2018-06-08T11:56:03.885Z,40.37
2018-06-08T11:58:32.648Z,41.75
2018-06-08T12:01:01.482Z,41.37
2018-06-08T12:03:30.291Z,40.93
2018-06-08T12:05:59.462Z,41.56
2018-06-08T12:08:28.252Z,41.27
2018-06-08T12:10:57.070Z,41.35
2018-06-08T12:13:25.950Z,40.28
2018-06-08T12:15:54.703Z,40.17
2018-06-08T12:18:23.490Z,39.99
2018-06-08T12:20:52.263Z,39.89
2018-06-08T12:23:21.090Z,41.30
2018-06-08T12:25:49.908Z,40.64
2018-06-08T12:28:18.722Z,41.36
2018-06-08T12:30:47.498Z,40.14
2018-06-08T12:33:16.408Z,40.88
2018-06-08T12:35:45.184Z,40.15
2018-06-08T12:38:14.230Z,41.18
2018-06-08T12:40:51.297Z,39.78
2018-06-08T12:43:21.110Z,39.96
2018-06-08T12:45:49.947Z,40.42
2018-06-08T12:48:18.656Z,41.16
2018-06-08T12:50:47.431Z,41.50
2018-06-08T12:53:16.162Z,41.69
2018-06-08T12:55:44.928Z,42.42
2018-06-08T12:58:13.894Z,42.28
2018-06-08T13:00:42.670Z,40.66
2018-06-08T13:03:20.225Z,41.69
2018-06-08T13:05:48.988Z,41.89
2018-06-08T13:08:17.852Z,40.79
2018-06-08T13:10:46.580Z,41.91
2018-06-08T13:13:15.346Z,41.78
2018-06-08T13:15:44.114Z,41.19
2018-06-08T13:18:13.020Z,41.46
2018-06-08T13:20:41.801Z,40.53
2018-06-08T13:23:10.608Z,40.97
2018-06-08T13:25:39.367Z,41.87
2018-06-08T13:28:08.069Z,42.54
2018-06-08T13:30:36.871Z,41.86
2018-06-08T13:33:05.610Z,41.95
2018-06-08T13:35:34.381Z,41.53
2018-06-08T13:38:03.091Z,40.99
2018-06-08T13:40:31.801Z,40.58
2018-06-08T13:43:00.780Z,41.89
2018-06-08T13:45:29.562Z,41.61
2018-06-08T13:47:58.290Z,40.82
2018-06-08T13:50:27.425Z,41.96
2018-06-08T13:52:56.214Z,41.18
2018-06-08T13:55:24.967Z,43.24
2018-06-08T13:57:53.702Z,42.96
2018-06-08T14:00:22.643Z,42.02
2018-06-08T14:02:51.465Z,43.06
2018-06-08T14:05:20.247Z,43.69
2018-06-08T14:07:48.960Z,42.57
2018-06-08T14:10:18.082Z,43.86
2018-06-08T14:12:46.923Z,43.21
2018-06-08T14:15:15.723Z,43.12
2018-06-08T14:17:44.639Z,43.58
2018-06-08T14:20:13.329Z,43.57
2018-06-08T14:22:42.046Z,42.66
2018-06-08T14:25:11.162Z,42.83
2018-06-08T14:27:39.941Z,41.74
2018-06-08T14:30:08.918Z,43.32
2018-06-08T14:32:37.709Z,42.68
2018-06-08T14:35:06.494Z,42.62
2018-06-08T14:37:35.310Z,42.10
2018-06-08T14:40:04.106Z,42.34
2018-06-08T14:42:32.879Z,42.10
2018-06-08T14:45:01.983Z,41.68
2018-06-08T14:47:30.721Z,42.09
2018-06-08T14:49:59.460Z,40.67
2018-06-08T14:52:28.237Z,39.77
2018-06-08T14:54:56.965Z,40.27
2018-06-08T14:57:26.884Z,39.90
2018-06-08T14:59:55.727Z,41.07
2018-06-08T15:02:24.661Z,40.19
2018-06-08T15:04:53.403Z,40.50
2018-06-08T15:07:22.181Z,40.22
2018-06-08T15:09:50.911Z,40.19
2018-06-08T15:12:19.665Z,41.20
2018-06-08T15:14:48.362Z,40.39
2018-06-08T15:17:17.133Z,40.83
2018-06-08T15:19:45.866Z,40.48
2018-06-08T15:22:14.626Z,40.01
2018-06-08T15:24:43.387Z,39.44
2018-06-08T15:27:12.165Z,40.42
2018-06-08T15:29:40.950Z,39.74
2018-06-08T15:32:09.700Z,39.94
2018-06-08T15:34:38.485Z,38.91
2018-06-08T15:37:07.368Z,39.59
2018-06-08T15:39:36.119Z,40.54
2018-06-08T15:42:04.871Z,39.58
2018-06-08T15:44:34.524Z,39.91
2018-06-08T15:47:03.336Z,40.90
2018-06-08T15:49:33.094Z,40.13
2018-06-08T15:52:01.946Z,40.60
2018-06-08T15:54:30.951Z,41.08
2018-06-08T15:57:00.021Z,42.22
2018-06-08T15:59:28.785Z,41.61
2018-06-08T16:02:23.384Z,42.67
2018-06-08T16:04:52.236Z,42.08
2018-06-08T16:07:22.685Z,43.41
2018-06-08T16:09:51.444Z,44.02
2018-06-08T16:12:21.251Z,44.11
2018-06-08T16:14:50.049Z,43.16
2018-06-08T16:17:19.899Z,43.82
2018-06-08T16:19:48.702Z,43.27
2018-06-08T16:22:17.458Z,43.10
2018-06-08T16:24:46.256Z,43.58
2018-06-08T16:27:15.364Z,43.95
2018-06-08T16:29:45.080Z,44.47
2018-06-08T16:32:13.794Z,45.06
2018-06-08T16:34:42.542Z,44.73
2018-06-08T16:37:11.349Z,45.47
2018-06-08T16:39:40.080Z,44.60
2018-06-08T16:42:08.818Z,44.93
2018-06-08T16:44:37.538Z,45.12
2018-06-08T16:47:06.365Z,45.19
2018-06-08T16:49:35.197Z,45.37
2018-06-08T16:52:04.038Z,45.74
2018-06-08T16:54:32.811Z,44.99
2018-06-08T16:57:01.599Z,45.75
2018-06-08T16:59:30.378Z,45.54
2018-06-08T17:01:59.136Z,45.58
2018-06-08T17:04:27.885Z,45.47
2018-06-08T17:06:56.741Z,45.76
2018-06-08T17:09:25.608Z,44.63
2018-06-08T17:11:58.325Z,44.87
2018-06-08T17:14:27.142Z,44.13
2018-06-08T17:16:56.050Z,44.93
2018-06-08T17:19:24.895Z,45.74
2018-06-08T17:21:56.013Z,45.54
2018-06-08T17:24:25.192Z,46.13
2018-06-08T17:26:53.911Z,46.53
2018-06-08T17:29:23.315Z,45.54
2018-06-08T17:31:52.068Z,46.96
2018-06-08T17:34:27.146Z,46.56
2018-06-08T17:36:55.922Z,47.25
2018-06-08T17:39:24.683Z,48.23
2018-06-08T17:41:53.526Z,48.44
2018-06-08T17:44:22.927Z,47.97
2018-06-08T17:46:51.649Z,48.01
2018-06-08T17:49:20.364Z,48.44
2018-06-08T17:51:49.047Z,48.95
2018-06-08T17:54:17.825Z,48.82
2018-06-08T17:56:46.542Z,49.00
2018-06-08T17:59:15.376Z,49.20
2018-06-08T18:01:44.135Z,49.34
2018-06-08T18:04:12.866Z,49.81
2018-06-08T18:06:41.607Z,49.53
2018-06-08T18:09:10.402Z,49.91
2018-06-08T18:11:39.648Z,49.96
2018-06-08T18:14:08.439Z,51.03
2018-06-08T18:16:37.186Z,50.54
2018-06-08T18:19:06.069Z,50.80
2018-06-08T18:21:34.937Z,51.68
2018-06-08T18:24:03.731Z,50.89
2018-06-08T18:26:32.489Z,51.63
2018-06-08T18:29:01.207Z,52.08
2018-06-08T18:31:30.001Z,51.65
2018-06-08T18:33:58.811Z,51.46
2018-06-08T18:36:27.572Z,51.63
2018-06-08T18:38:56.566Z,52.03
2018-06-08T18:41:25.360Z,51.76
2018-06-08T18:43:54.689Z,52.60
2018-06-08T18:46:23.429Z,52.52
2018-06-08T18:48:53.180Z,52.56
2018-06-08T18:51:22.051Z,52.66
2018-06-08T18:53:52.583Z,51.77
2018-06-08T18:56:21.316Z,52.02
2018-06-08T18:58:50.090Z,52.90
2018-06-08T19:01:18.897Z,52.71
2018-06-08T19:03:47.787Z,52.99
2018-06-08T19:06:16.607Z,53.26
2018-06-08T19:08:45.385Z,53.00
2018-06-08T19:11:14.108Z,53.17
2018-06-08T19:13:42.873Z,52.81
2018-06-08T19:16:11.638Z,53.62
2018-06-08T19:18:40.378Z,53.80
2018-06-08T19:21:09.214Z,52.76
2018-06-08T19:23:37.966Z,53.39
2018-06-08T19:26:06.782Z,52.78
2018-06-08T19:28:35.493Z,52.73
2018-06-08T19:31:04.256Z,52.60
2018-06-08T19:33:32.971Z,52.76
2018-06-08T19:36:01.667Z,52.55
2018-06-08T19:38:30.458Z,53.43
2018-06-08T19:40:59.487Z,53.59
2018-06-08T19:43:28.256Z,52.84
2018-06-08T19:45:56.982Z,53.35
2018-06-08T19:48:25.727Z,53.73
2018-06-08T19:50:54.475Z,52.84
2018-06-08T19:53:23.329Z,53.73
2018-06-08T19:55:52.038Z,53.00
2018-06-08T19:58:20.795Z,52.83
2018-06-08T20:00:49.657Z,53.62
2018-06-08T20:03:18.449Z,52.74
2018-06-08T20:05:47.237Z,53.61
2018-06-08T20:08:15.985Z,53.51
2018-06-08T20:10:46.503Z,52.62
2018-06-08T20:13:15.345Z,52.91
2018-06-08T20:15:44.195Z,53.05
2018-06-08T20:18:12.951Z,53.87
2018-06-08T20:20:41.706Z,54.02
2018-06-08T20:23:10.544Z,53.98
2018-06-08T20:25:39.380Z,53.46
2018-06-08T20:28:08.087Z,53.43
2018-06-08T20:30:36.901Z,54.18
2018-06-08T20:33:05.776Z,53.83
2018-06-08T20:35:34.536Z,54.43
2018-06-08T20:38:04.684Z,54.29
2018-06-08T20:40:33.543Z,53.79
2018-06-08T20:43:02.540Z,53.59
2018-06-08T20:45:31.290Z,54.50
2018-06-08T20:48:00.080Z,53.48
2018-06-08T20:50:28.856Z,53.42
2018-06-08T20:52:57.618Z,54.25
2018-06-08T20:55:26.342Z,54.25
2018-06-08T20:58:01.177Z,54.48
2018-06-08T21:00:29.961Z,54.45
2018-06-08T21:02:58.711Z,53.50
2018-06-08T21:05:27.417Z,54.21
2018-06-08T21:07:56.183Z,54.04
2018-06-08T21:10:25.818Z,53.73
2018-06-08T21:12:54.562Z,53.79
2018-06-08T21:15:23.315Z,54.51
2018-06-08T21:17:52.033Z,53.50
2018-06-08T21:20:20.753Z,53.41
2018-06-08T21:22:49.534Z,53.28
2018-06-08T21:25:18.505Z,53.60
2018-06-08T21:27:47.229Z,54.03
2018-06-08T21:30:15.990Z,54.08
2018-06-08T21:32:44.794Z,53.14
2018-06-08T21:35:13.551Z,53.94
2018-06-08T21:37:42.369Z,54.12
2018-06-08T21:40:11.341Z,53.64
2018-06-08T21:42:40.150Z,53.41
2018-06-08T21:45:08.945Z,53.48
2018-06-08T21:47:37.649Z,54.24
2018-06-08T21:50:07.134Z,53.36
2018-06-08T21:52:36.086Z,53.33
2018-06-08T21:55:04.870Z,53.93
2018-06-08T21:57:33.665Z,54.37
2018-06-08T22:00:04.202Z,54.39
2018-06-08T22:02:32.979Z,53.87
2018-06-08T22:05:01.764Z,54.14
2018-06-08T22:07:30.556Z,54.11
2018-06-08T22:09:59.824Z,54.75
2018-06-08T22:12:28.638Z,54.66
2018-06-08T22:14:57.388Z,54.25
2018-06-08T22:17:26.138Z,54.17
2018-06-08T22:19:54.962Z,54.17
2018-06-08T22:22:23.807Z,54.12
2018-06-08T22:24:52.608Z,54.42
2018-06-08T22:27:21.552Z,55.73
2018-06-08T22:29:50.356Z,55.02
2018-06-08T22:32:19.233Z,55.23
2018-06-08T22:34:48.003Z,56.56
2018-06-08T22:37:16.816Z,55.94
2018-06-08T22:39:45.593Z,55.94
2018-06-08T22:42:14.349Z,56.18
2018-06-08T22:44:43.153Z,57.11
2018-06-08T22:47:11.950Z,56.93
2018-06-08T22:49:40.712Z,57.20
2018-06-08T22:52:09.451Z,56.78
2018-06-08T22:54:38.201Z,57.11
2018-06-08T22:57:06.965Z,56.89
2018-06-08T22:59:35.734Z,57.78
2018-06-08T23:02:04.575Z,56.89
2018-06-08T23:04:33.310Z,56.95
2018-06-08T23:07:03.720Z,57.16
2018-06-08T23:09:32.423Z,58.05
2018-06-08T23:12:01.184Z,58.08
2018-06-08T23:14:29.893Z,57.57
2018-06-08T23:16:58.695Z,57.71
2018-06-08T23:19:27.626Z,58.73
2018-06-08T23:21:56.345Z,57.99
2018-06-08T23:24:25.123Z,58.27
2018-06-08T23:26:53.829Z,59.15
2018-06-08T23:29:22.611Z,58.74
2018-06-08T23:31:51.338Z,59.18
2018-06-08T23:34:20.125Z,58.36
2018-06-08T23:36:48.906Z,58.53
2018-06-08T23:39:17.645Z,59.10
2018-06-08T23:41:46.420Z,58.61
2018-06-08T23:44:15.137Z,58.34
2018-06-08T23:46:43.862Z,58.29
2018-06-08T23:49:12.589Z,58.42
2018-06-08T23:51:41.289Z,58.93
2018-06-08T23:54:10.035Z,58.82
2018-06-08T23:56:38.781Z,58.82
2018-06-08T23:59:07.539Z,58.80
